createdAt,value
2019-03-08T00:00:05.466Z,0.67
2019-03-08T00:02:32.129Z,0.40
2019-03-08T00:04:58.413Z,0.50
2019-03-08T00:07:25.325Z,0.47
2019-03-08T00:09:52.149Z,0.40
2019-03-08T00:12:18.438Z,0.60
2019-03-08T00:14:45.077Z,0.60
2019-03-08T00:17:11.846Z,0.30
2019-03-08T00:19:38.210Z,0.40
2019-03-08T00:22:06.557Z,0.50
2019-03-08T00:24:33.087Z,0.30
2019-03-08T00:26:59.704Z,0.67
2019-03-08T00:29:25.970Z,0.40
2019-03-08T00:31:52.266Z,0.53
2019-03-08T00:34:18.521Z,0.20
2019-03-08T00:36:45.122Z,0.30
2019-03-08T00:39:11.741Z,0.40
2019-03-08T00:41:38.038Z,0.40
2019-03-08T00:44:04.310Z,0.50
2019-03-08T00:46:31.013Z,0.60
2019-03-08T00:48:57.997Z,0.40
2019-03-08T00:51:24.435Z,0.50
2019-03-08T00:53:51.063Z,0.40
2019-03-08T00:56:17.429Z,0.30
2019-03-08T00:58:43.953Z,0.40
2019-03-08T01:01:10.225Z,0.30
2019-03-08T01:03:36.969Z,0.30
2019-03-08T01:06:03.580Z,0.40
2019-03-08T01:08:30.217Z,0.30
2019-03-08T01:10:56.837Z,0.37
2019-03-08T01:13:23.489Z,0.37
2019-03-08T01:15:50.102Z,0.50
2019-03-08T01:18:16.382Z,0.40
2019-03-08T01:20:42.829Z,0.40
2019-03-08T01:23:09.122Z,0.30
2019-03-08T01:25:35.487Z,0.63
2019-03-08T01:28:06.426Z,0.30
2019-03-08T01:30:33.646Z,0.30
2019-03-08T01:33:00.036Z,0.30
2019-03-08T01:35:26.754Z,0.23
2019-03-08T01:37:53.341Z,0.40
2019-03-08T01:40:19.954Z,0.23
2019-03-08T01:42:46.611Z,0.30
2019-03-08T01:45:13.333Z,0.30
2019-03-08T01:47:39.988Z,0.43
2019-03-08T01:50:07.440Z,0.40
2019-03-08T01:52:34.201Z,0.30
2019-03-08T01:55:01.725Z,0.33
2019-03-08T01:57:28.029Z,0.30
2019-03-08T01:59:54.652Z,0.30
2019-03-08T02:02:21.207Z,0.30
2019-03-08T02:04:47.820Z,0.50
2019-03-08T02:07:14.441Z,0.53
2019-03-08T02:09:40.696Z,0.40
2019-03-08T02:12:07.152Z,0.40
2019-03-08T02:14:33.549Z,0.50
2019-03-08T02:17:00.419Z,0.30
2019-03-08T02:19:27.082Z,0.20
2019-03-08T02:21:53.801Z,0.30
2019-03-08T02:24:20.085Z,0.27
2019-03-08T02:26:46.365Z,0.23
2019-03-08T02:29:12.957Z,0.67
2019-03-08T02:31:39.309Z,0.30
2019-03-08T02:34:06.749Z,0.40
2019-03-08T02:36:33.021Z,0.10
2019-03-08T02:38:59.296Z,0.23
2019-03-08T02:41:26.056Z,0.20
2019-03-08T02:43:52.697Z,0.30
2019-03-08T02:46:18.966Z,0.20
2019-03-08T02:48:45.633Z,0.10
2019-03-08T02:51:12.055Z,0.10
2019-03-08T02:53:38.290Z,0.20
2019-03-08T02:56:04.573Z,0.10
2019-03-08T02:58:31.213Z,0.27
2019-03-08T03:00:58.069Z,0.10
2019-03-08T03:03:24.347Z,0.20
2019-03-08T03:05:50.618Z,0.10
2019-03-08T03:08:17.256Z,0.10
2019-03-08T03:10:43.880Z,0.03
2019-03-08T03:13:10.130Z,0.10
2019-03-08T03:15:36.846Z,0.03
2019-03-08T03:18:03.464Z,0.10
2019-03-08T03:20:29.868Z,0.20
2019-03-08T03:22:56.993Z,0.10
2019-03-08T03:25:23.379Z,0.27
2019-03-08T03:27:49.644Z,0.10
2019-03-08T03:30:19.688Z,0.10
2019-03-08T03:32:45.963Z,0.13
2019-03-08T03:35:12.602Z,0.10
2019-03-08T03:37:39.026Z,0.33
2019-03-08T03:40:07.736Z,0.20
2019-03-08T03:42:34.370Z,0.10
2019-03-08T03:45:00.676Z,0.10
2019-03-08T03:47:27.549Z,0.00
2019-03-08T03:49:54.198Z,0.10
2019-03-08T03:52:20.806Z,0.00
2019-03-08T03:54:47.729Z,0.17
2019-03-08T03:57:14.457Z,0.10
2019-03-08T03:59:41.102Z,0.10
2019-03-08T04:02:07.725Z,0.10
2019-03-08T04:04:34.373Z,0.10
2019-03-08T04:07:00.646Z,0.10
2019-03-08T04:09:26.948Z,0.20
2019-03-08T04:11:53.225Z,0.40
2019-03-08T04:14:19.714Z,0.13
2019-03-08T04:16:46.453Z,0.20
2019-03-08T04:19:12.971Z,0.20
2019-03-08T04:21:39.606Z,0.20
2019-03-08T04:24:05.910Z,0.10
2019-03-08T04:26:32.173Z,0.10
2019-03-08T04:28:58.795Z,0.00
2019-03-08T04:31:25.253Z,0.00
2019-03-08T04:33:51.532Z,0.10
2019-03-08T04:36:18.182Z,0.10
2019-03-08T04:38:44.905Z,0.10
2019-03-08T04:41:11.546Z,0.10
2019-03-08T04:43:38.177Z,0.03
2019-03-08T04:46:04.453Z,0.20
2019-03-08T04:48:31.072Z,0.27
2019-03-08T04:50:57.719Z,0.10
2019-03-08T04:53:23.972Z,0.10
2019-03-08T04:55:50.600Z,0.10
2019-03-08T04:58:17.220Z,0.20
2019-03-08T05:00:43.878Z,0.27
2019-03-08T05:03:10.147Z,0.20
2019-03-08T05:05:36.438Z,0.13
2019-03-08T05:08:03.361Z,0.10
2019-03-08T05:10:29.657Z,0.10
2019-03-08T05:12:56.735Z,0.10
2019-03-08T05:15:23.370Z,0.20
2019-03-08T05:17:49.631Z,0.30
2019-03-08T05:20:16.278Z,0.30
2019-03-08T05:22:42.558Z,0.10
2019-03-08T05:25:11.463Z,0.10
2019-03-08T05:27:37.827Z,0.20
2019-03-08T05:30:06.273Z,0.20
2019-03-08T05:32:32.909Z,0.10
2019-03-08T05:34:59.834Z,0.20
2019-03-08T05:37:26.103Z,0.23
2019-03-08T05:39:52.728Z,0.03
2019-03-08T05:42:19.582Z,0.43
2019-03-08T05:44:45.837Z,0.10
2019-03-08T05:47:12.497Z,0.20
2019-03-08T05:49:39.121Z,0.10
2019-03-08T05:52:05.817Z,0.20
2019-03-08T05:54:32.461Z,0.27
2019-03-08T05:56:58.774Z,0.23
2019-03-08T05:59:25.690Z,0.10
2019-03-08T06:01:52.840Z,0.13
2019-03-08T06:04:19.097Z,0.30
2019-03-08T06:06:45.394Z,0.20
2019-03-08T06:09:12.021Z,0.13
2019-03-08T06:11:38.688Z,0.20
2019-03-08T06:14:05.576Z,0.20
2019-03-08T06:16:32.211Z,0.20
2019-03-08T06:18:59.237Z,0.30
2019-03-08T06:21:25.902Z,0.20
2019-03-08T06:23:52.182Z,0.20
2019-03-08T06:26:18.506Z,0.30
2019-03-08T06:28:44.762Z,0.13
2019-03-08T06:31:11.417Z,0.23
2019-03-08T06:33:37.678Z,0.37
2019-03-08T06:36:04.310Z,0.20
2019-03-08T06:38:31.037Z,0.20
2019-03-08T06:40:57.658Z,0.40
2019-03-08T06:43:24.282Z,0.60
2019-03-08T06:45:50.910Z,0.40
2019-03-08T06:48:17.533Z,0.50
2019-03-08T06:50:44.473Z,0.30
2019-03-08T06:53:11.089Z,0.30
2019-03-08T06:55:37.739Z,0.30
2019-03-08T06:58:04.501Z,0.40
2019-03-08T07:00:35.675Z,0.40
2019-03-08T07:03:03.514Z,0.60
2019-03-08T07:05:30.131Z,0.30
2019-03-08T07:07:56.789Z,0.43
2019-03-08T07:10:23.423Z,0.50
2019-03-08T07:12:50.077Z,0.40
2019-03-08T07:15:16.797Z,0.30
2019-03-08T07:17:43.462Z,0.60
2019-03-08T07:20:17.889Z,0.73
2019-03-08T07:22:48.857Z,0.60
2019-03-08T07:25:33.614Z,0.30
2019-03-08T07:28:08.025Z,0.37
2019-03-08T07:30:57.964Z,0.83
2019-03-08T07:33:25.666Z,0.23
2019-03-08T07:36:06.126Z,0.60
2019-03-08T07:38:34.671Z,0.50
2019-03-08T07:41:02.838Z,0.30
2019-03-08T07:43:33.996Z,0.40
2019-03-08T07:46:05.390Z,0.40
2019-03-08T07:48:34.255Z,0.40
2019-03-08T07:51:20.322Z,0.40
2019-03-08T07:53:48.853Z,0.50
2019-03-08T07:56:19.914Z,0.60
2019-03-08T07:58:51.005Z,0.53
2019-03-08T08:01:22.159Z,0.60
2019-03-08T08:03:53.625Z,0.57
2019-03-08T08:06:36.737Z,0.53
2019-03-08T08:09:06.973Z,0.50
2019-03-08T08:11:38.513Z,0.30
2019-03-08T08:14:23.998Z,0.33
2019-03-08T08:17:00.830Z,0.40
2019-03-08T08:19:41.452Z,0.40
2019-03-08T08:22:15.413Z,0.40
2019-03-08T08:24:46.498Z,0.43
2019-03-08T08:27:21.255Z,0.70
2019-03-08T08:30:06.245Z,0.50
2019-03-08T08:32:50.593Z,0.90
2019-03-08T08:35:24.866Z,0.50
2019-03-08T08:38:05.130Z,0.60
2019-03-08T08:40:39.653Z,0.70
2019-03-08T08:43:26.238Z,0.50
2019-03-08T08:46:03.148Z,0.43
2019-03-08T08:48:46.450Z,0.70
2019-03-08T08:51:33.362Z,0.37
2019-03-08T08:54:01.582Z,0.40
2019-03-08T08:56:36.033Z,0.60
2019-03-08T08:59:10.097Z,0.53
2019-03-08T09:01:41.232Z,0.70
2019-03-08T09:04:18.566Z,0.73
2019-03-08T09:07:01.802Z,0.60
2019-03-08T09:09:31.887Z,0.63
2019-03-08T09:12:11.911Z,0.60
2019-03-08T09:14:58.089Z,0.53
2019-03-08T09:17:31.954Z,0.47
2019-03-08T09:20:09.381Z,0.63
2019-03-08T09:22:46.558Z,0.70
2019-03-08T09:25:15.121Z,1.63
2019-03-08T09:27:43.290Z,0.63
2019-03-08T09:30:14.565Z,0.50
2019-03-08T09:32:42.733Z,0.40
2019-03-08T09:35:13.606Z,0.70
2019-03-08T09:37:45.043Z,0.90
2019-03-08T09:40:19.553Z,0.50
2019-03-08T09:42:51.077Z,0.50
2019-03-08T09:45:19.355Z,0.57
2019-03-08T09:47:56.869Z,0.57
2019-03-08T09:50:27.772Z,0.50
2019-03-08T09:52:56.182Z,0.60
2019-03-08T09:55:36.102Z,0.60
2019-03-08T09:58:04.962Z,0.40
2019-03-08T10:00:47.819Z,0.43
2019-03-08T10:03:18.766Z,0.50
2019-03-08T10:05:49.931Z,0.53
2019-03-08T10:08:18.496Z,0.50
2019-03-08T10:10:49.657Z,0.70
2019-03-08T10:13:21.408Z,0.67
2019-03-08T10:15:55.906Z,0.67
2019-03-08T10:18:24.471Z,0.80
2019-03-08T10:21:07.699Z,0.50
2019-03-08T10:23:37.326Z,0.70
2019-03-08T10:26:22.266Z,0.53
2019-03-08T10:29:08.370Z,0.53
2019-03-08T10:31:54.272Z,0.70
2019-03-08T10:34:31.680Z,0.80
2019-03-08T10:37:17.365Z,0.60
2019-03-08T10:39:48.541Z,0.40
2019-03-08T10:42:28.513Z,0.70
2019-03-08T10:44:59.738Z,0.57
2019-03-08T10:47:44.561Z,0.57
2019-03-08T10:50:24.942Z,0.50
2019-03-08T10:52:53.485Z,0.60
2019-03-08T10:55:26.258Z,0.53
2019-03-08T10:58:06.540Z,0.80
2019-03-08T11:00:48.084Z,0.57
2019-03-08T11:03:16.390Z,1.00
2019-03-08T11:05:44.966Z,0.53
2019-03-08T11:08:16.274Z,0.67
2019-03-08T11:10:50.220Z,1.07
2019-03-08T11:13:42.974Z,0.87
2019-03-08T11:16:08.382Z,0.50
2019-03-08T11:18:39.593Z,0.47
2019-03-08T11:21:20.183Z,0.67
2019-03-08T11:23:48.728Z,0.70
2019-03-08T11:26:20.216Z,0.60
2019-03-08T11:29:04.938Z,0.53
2019-03-08T11:31:34.837Z,0.80
2019-03-08T11:34:03.518Z,0.40
2019-03-08T11:36:39.262Z,0.57
2019-03-08T11:39:13.293Z,0.60
2019-03-08T11:41:44.435Z,0.50
2019-03-08T11:44:12.975Z,0.50
2019-03-08T11:46:45.628Z,0.57
2019-03-08T11:49:22.330Z,0.57
2019-03-08T11:51:59.810Z,0.87
2019-03-08T11:54:40.702Z,0.50
2019-03-08T11:57:23.721Z,0.43
2019-03-08T12:00:07.537Z,0.40
2019-03-08T12:02:52.133Z,0.60
2019-03-08T12:05:26.314Z,0.80
2019-03-08T12:08:01.030Z,0.50
2019-03-08T12:10:29.561Z,0.63
2019-03-08T12:13:02.945Z,0.60
2019-03-08T12:15:31.458Z,0.80
2019-03-08T12:18:09.364Z,0.67
2019-03-08T12:20:40.586Z,0.80
2019-03-08T12:23:21.258Z,0.43
2019-03-08T12:25:52.781Z,0.50
2019-03-08T12:28:26.965Z,0.50
2019-03-08T12:31:07.283Z,0.70
2019-03-08T12:33:51.842Z,0.60
2019-03-08T12:36:23.114Z,0.70
2019-03-08T12:38:54.665Z,0.80
2019-03-08T12:41:26.067Z,0.50
2019-03-08T12:44:11.749Z,0.70
2019-03-08T12:46:40.728Z,0.63
2019-03-08T12:49:26.820Z,0.70
2019-03-08T12:51:58.233Z,0.40
2019-03-08T12:54:29.238Z,0.53
2019-03-08T12:57:12.354Z,0.70
2019-03-08T12:59:43.893Z,0.60
2019-03-08T13:02:12.362Z,0.80
2019-03-08T13:04:57.244Z,0.50
2019-03-08T13:07:25.436Z,0.70
2019-03-08T13:09:54.451Z,0.70
2019-03-08T13:12:21.178Z,0.60
2019-03-08T13:14:47.771Z,1.00
2019-03-08T13:17:16.610Z,0.80
2019-03-08T13:19:46.041Z,0.70
2019-03-08T13:22:12.681Z,0.80
2019-03-08T13:24:41.450Z,0.60
2019-03-08T13:27:09.167Z,0.50
2019-03-08T13:29:35.410Z,0.53
2019-03-08T13:32:02.067Z,0.63
2019-03-08T13:34:29.691Z,0.70
2019-03-08T13:36:56.349Z,0.40
2019-03-08T13:39:22.969Z,0.70
2019-03-08T13:41:49.971Z,0.50
2019-03-08T13:44:16.887Z,0.77
2019-03-08T13:46:46.588Z,0.60
2019-03-08T13:49:12.852Z,0.60
2019-03-08T13:51:39.238Z,0.57
2019-03-08T13:54:05.503Z,0.43
2019-03-08T13:56:32.151Z,0.57
2019-03-08T13:58:58.782Z,0.73
2019-03-08T14:01:26.784Z,0.70
2019-03-08T14:03:53.666Z,0.70
2019-03-08T14:06:21.866Z,0.70
2019-03-08T14:08:48.497Z,0.90
2019-03-08T14:11:14.793Z,0.70
2019-03-08T14:13:41.686Z,0.60
2019-03-08T14:16:08.352Z,0.67
2019-03-08T14:18:34.963Z,0.40
2019-03-08T14:23:27.109Z,0.40
2019-03-08T14:25:53.671Z,0.63
2019-03-08T14:28:19.933Z,0.50
2019-03-08T14:30:57.557Z,0.70
2019-03-08T14:33:19.512Z,0.40
2019-03-08T14:35:46.133Z,0.60
2019-03-08T14:38:12.662Z,0.50
2019-03-08T14:40:59.086Z,0.40
2019-03-08T14:43:27.624Z,0.70
2019-03-08T14:45:56.085Z,0.70
2019-03-08T14:48:22.362Z,0.60
2019-03-08T14:50:48.989Z,0.50
2019-03-08T14:53:15.376Z,0.60
2019-03-08T14:55:41.645Z,0.50
2019-03-08T14:58:08.050Z,0.50
2019-03-08T15:00:34.767Z,0.57
2019-03-08T15:03:01.428Z,0.83
2019-03-08T15:05:27.688Z,0.80
2019-03-08T15:07:54.597Z,0.60
2019-03-08T15:10:22.366Z,0.60
2019-03-08T15:12:49.524Z,0.50
2019-03-08T15:15:17.771Z,0.73
2019-03-08T15:17:44.521Z,0.47
2019-03-08T15:20:15.430Z,0.57
2019-03-08T15:22:41.622Z,0.90
2019-03-08T15:25:12.682Z,0.53
2019-03-08T15:27:37.802Z,0.67
2019-03-08T15:30:06.314Z,0.70
2019-03-08T15:32:32.977Z,0.60
2019-03-08T15:35:01.532Z,0.60
2019-03-08T15:37:27.913Z,0.70
2019-03-08T15:39:54.565Z,0.70
2019-03-08T15:42:22.247Z,0.60
2019-03-08T15:44:51.655Z,0.60
2019-03-08T15:47:23.504Z,0.50
2019-03-08T15:49:46.354Z,0.60
2019-03-08T15:52:12.966Z,0.70
2019-03-08T15:54:39.609Z,0.50
2019-03-08T15:57:06.222Z,5.03
2019-03-08T15:59:32.543Z,1.80
2019-03-08T16:02:02.094Z,0.80
2019-03-08T16:04:29.483Z,0.60
2019-03-08T16:06:55.990Z,0.60
2019-03-08T16:09:22.285Z,0.50
2019-03-08T16:11:49.017Z,0.60
2019-03-08T16:14:15.953Z,0.40
2019-03-08T16:16:42.597Z,0.53
2019-03-08T16:19:09.015Z,0.63
2019-03-08T16:21:35.639Z,0.50
2019-03-08T16:24:02.330Z,0.57
2019-03-08T16:26:29.249Z,0.40
2019-03-08T16:28:55.919Z,0.50
2019-03-08T16:31:41.075Z,0.50
2019-03-08T16:34:09.616Z,0.50
2019-03-08T16:36:38.146Z,0.37
2019-03-08T16:39:06.434Z,0.57
2019-03-08T16:41:51.453Z,0.40
2019-03-08T16:44:22.971Z,0.53
2019-03-08T16:47:01.409Z,0.50
2019-03-08T16:49:32.575Z,0.60
2019-03-08T16:52:09.975Z,0.87
2019-03-08T16:54:56.818Z,0.60
2019-03-08T16:57:34.107Z,0.30
2019-03-08T17:00:11.081Z,0.40
2019-03-08T17:02:39.905Z,0.30
2019-03-08T17:05:24.728Z,0.73
2019-03-08T17:08:18.045Z,0.50
2019-03-08T17:10:46.614Z,0.40
2019-03-08T17:13:14.894Z,0.43
2019-03-08T17:15:52.370Z,0.43
2019-03-08T17:18:20.758Z,0.63
2019-03-08T17:20:58.037Z,0.60
2019-03-08T17:23:41.350Z,0.50
2019-03-08T17:26:26.485Z,0.43
2019-03-08T17:29:07.058Z,0.40
2019-03-08T17:31:41.559Z,0.80
2019-03-08T17:34:26.074Z,0.60
2019-03-08T17:37:00.045Z,0.93
2019-03-08T17:39:28.608Z,1.50
2019-03-08T17:41:59.610Z,1.10
2019-03-08T17:44:48.537Z,1.23
2019-03-08T17:47:22.945Z,1.17
2019-03-08T17:49:51.482Z,0.73
2019-03-08T17:52:26.306Z,0.90
2019-03-08T17:55:00.671Z,0.70
2019-03-08T17:57:29.205Z,0.80
2019-03-08T18:00:14.029Z,0.73
2019-03-08T18:02:48.429Z,0.50
2019-03-08T18:05:16.968Z,0.70
2019-03-08T18:07:51.218Z,0.80
2019-03-08T18:10:28.356Z,0.80
2019-03-08T18:12:59.830Z,0.87
2019-03-08T18:15:44.591Z,1.37
2019-03-08T18:18:12.778Z,1.13
2019-03-08T18:20:56.284Z,1.03
2019-03-08T18:23:27.688Z,1.03
2019-03-08T18:25:59.146Z,1.27
2019-03-08T18:28:45.669Z,1.23
2019-03-08T18:31:23.131Z,1.30
2019-03-08T18:33:51.714Z,1.30
2019-03-08T18:36:29.058Z,1.20
2019-03-08T18:38:57.638Z,1.50
2019-03-08T18:41:42.850Z,2.00
2019-03-08T18:44:10.785Z,2.50
2019-03-08T18:46:51.257Z,2.40
2019-03-08T18:49:31.546Z,1.83
2019-03-08T18:52:08.666Z,1.53
2019-03-08T18:54:57.430Z,1.07
2019-03-08T18:57:28.524Z,1.00
2019-03-08T19:00:08.538Z,0.90
2019-03-08T19:02:45.806Z,0.73
2019-03-08T19:05:23.415Z,1.10
2019-03-08T19:08:08.244Z,1.30
2019-03-08T19:10:48.776Z,1.00
2019-03-08T19:13:29.139Z,1.20
2019-03-08T19:16:09.261Z,0.90
2019-03-08T19:18:46.733Z,1.23
2019-03-08T19:21:14.914Z,1.60
2019-03-08T19:23:43.482Z,2.30
2019-03-08T19:26:12.798Z,1.70
2019-03-08T19:28:44.361Z,2.17
2019-03-08T19:31:21.662Z,2.02
2019-03-08T19:33:49.810Z,2.30
2019-03-08T19:36:30.134Z,2.00
2019-03-08T19:39:04.602Z,1.80
2019-03-08T19:41:32.834Z,1.40
2019-03-08T19:44:07.043Z,1.13
2019-03-08T19:46:51.947Z,1.37
2019-03-08T19:49:29.165Z,1.00
2019-03-08T19:52:12.338Z,1.07
2019-03-08T19:54:49.370Z,0.90
2019-03-08T19:57:34.158Z,0.83
2019-03-08T20:00:05.116Z,1.70
2019-03-08T20:02:41.813Z,1.77
2019-03-08T20:05:07.671Z,1.60
2019-03-08T20:07:35.854Z,1.70
2019-03-08T20:10:22.253Z,1.40
2019-03-08T20:12:50.435Z,1.03
2019-03-08T20:15:27.798Z,1.37
2019-03-08T20:17:55.986Z,1.80
2019-03-08T20:20:30.115Z,1.50
2019-03-08T20:23:15.143Z,2.30
2019-03-08T20:25:59.737Z,2.60
2019-03-08T20:28:31.121Z,2.87
2019-03-08T20:31:04.837Z,1.87
2019-03-08T20:33:49.741Z,1.73
2019-03-08T20:36:18.257Z,1.33
2019-03-08T20:38:55.899Z,1.52
2019-03-08T20:41:40.621Z,1.20
2019-03-08T20:44:14.610Z,1.00
2019-03-08T20:46:43.162Z,1.20
2019-03-08T20:49:11.695Z,1.10
2019-03-08T20:51:38.322Z,1.30
2019-03-08T20:54:06.516Z,1.13
2019-03-08T20:56:33.137Z,1.37
2019-03-08T20:58:59.779Z,1.10
2019-03-08T21:01:26.074Z,1.00
2019-03-08T21:03:53.002Z,1.37
2019-03-08T21:06:19.417Z,1.00
2019-03-08T21:08:46.088Z,1.00
2019-03-08T21:11:13.386Z,0.80
2019-03-08T21:13:39.802Z,0.80
2019-03-08T21:16:06.278Z,1.30
2019-03-08T21:18:32.645Z,0.90
2019-03-08T21:20:59.305Z,0.97
2019-03-08T21:23:25.946Z,1.20
2019-03-08T21:25:52.616Z,1.47
2019-03-08T21:28:18.957Z,1.67
2019-03-08T21:30:45.211Z,1.77
2019-03-08T21:33:11.973Z,1.70
2019-03-08T21:35:38.214Z,1.60
2019-03-08T21:38:04.529Z,0.87
2019-03-08T21:40:32.213Z,0.93
2019-03-08T21:42:58.877Z,0.90
2019-03-08T21:45:25.196Z,0.77
2019-03-08T21:47:51.792Z,1.30
2019-03-08T21:50:19.851Z,1.13
2019-03-08T21:52:47.535Z,0.93
2019-03-08T21:55:14.179Z,1.07
2019-03-08T21:57:40.786Z,1.00
2019-03-08T22:00:10.984Z,1.03
2019-03-08T22:02:37.451Z,1.10
2019-03-08T22:05:05.511Z,1.27
2019-03-08T22:07:31.855Z,0.90
2019-03-08T22:10:00.093Z,1.00
2019-03-08T22:12:26.717Z,0.83
2019-03-08T22:14:53.371Z,1.20
2019-03-08T22:17:19.989Z,0.83
2019-03-08T22:19:46.301Z,0.90
2019-03-08T22:22:12.935Z,1.20
2019-03-08T22:24:39.585Z,0.97
2019-03-08T22:27:07.344Z,1.07
2019-03-08T22:29:33.645Z,1.00
2019-03-08T22:32:00.528Z,0.90
2019-03-08T22:34:28.039Z,0.80
2019-03-08T22:36:54.594Z,1.10
2019-03-08T22:39:21.334Z,1.03
2019-03-08T22:41:48.762Z,0.80
2019-03-08T22:44:16.983Z,0.83
2019-03-08T22:46:45.420Z,1.10
2019-03-08T22:49:12.085Z,0.90
2019-03-08T22:51:38.975Z,0.83
2019-03-08T22:54:05.286Z,0.87
2019-03-08T22:56:31.949Z,1.07
2019-03-08T22:58:58.573Z,1.00
2019-03-08T23:01:27.201Z,0.97
2019-03-08T23:03:53.721Z,0.93
2019-03-08T23:06:20.474Z,1.03
2019-03-08T23:08:46.732Z,1.03
2019-03-08T23:11:13.311Z,1.10
2019-03-08T23:13:39.582Z,1.03
2019-03-08T23:16:05.992Z,1.07
2019-03-08T23:18:32.350Z,1.00
2019-03-08T23:20:59.717Z,1.10
2019-03-08T23:23:25.983Z,1.30
2019-03-08T23:25:52.277Z,0.90
2019-03-08T23:28:23.233Z,1.07
2019-03-08T23:30:54.605Z,1.13
2019-03-08T23:33:21.099Z,1.00
2019-03-08T23:35:47.724Z,1.20
2019-03-08T23:38:14.345Z,1.23
2019-03-08T23:40:40.624Z,0.77
2019-03-08T23:43:07.244Z,0.97
2019-03-08T23:45:33.889Z,0.77
2019-03-08T23:48:00.413Z,0.93
2019-03-08T23:50:27.074Z,1.10
2019-03-08T23:52:53.342Z,1.00
2019-03-08T23:55:19.641Z,0.90
2019-03-08T23:57:45.902Z,0.93
